Time;durP1;ratioP1;P1;durP2;ratioP2;P2;SDS_P1;SDS_P2;PMS_P1;PMS_P2;Temp;Humidity;BMP_temperature;BMP_pressure;BME280_temperature;BME280_humidity;BME280_pressure;Samples;Min_cycle;Max_cycle;Signal;HPM_P1;HPM_P2
2023/03/27 09:51:43;;;;;;;4.87;0.50;;;7.90;99.90;;;;;;3472067;23;20240;-71
2023/03/27 09:54:13;;;;;;;0.93;0.30;;;8.00;99.90;;;;;;4947535;29;20220;-71
2023/03/27 09:56:42;;;;;;;3.03;0.47;;;8.10;99.90;;;;;;4954485;28;20227;-70
2023/03/27 09:59:22;;;;;;;3.87;0.60;;;8.40;99.90;;;;;;4954487;28;20261;-71
2023/03/27 10:01:51;;;;;;;1.17;0.23;;;8.70;99.90;;;;;;4954568;28;20214;-71
2023/03/27 10:04:20;;;;;;;0.87;0.40;;;8.70;99.90;;;;;;4954694;28;20212;-71
2023/03/27 10:06:56;;;;;;;2.43;0.50;;;8.70;99.90;;;;;;4954370;28;20655;-71
2023/03/27 10:09:26;;;;;;;4.50;0.20;;;8.70;99.90;;;;;;4954152;28;20231;-70
2023/03/27 10:12:03;;;;;;;3.40;0.30;;;8.60;99.90;;;;;;4954065;28;20290;-71
2023/03/27 10:14:33;;;;;;;1.93;0.20;;;8.50;99.90;;;;;;4948974;28;20210;-71
2023/03/27 10:17:00;;;;;;;2.60;0.60;;;8.60;99.90;;;;;;4952882;28;20253;-73
2023/03/27 10:19:30;;;;;;;2.17;0.23;;;8.70;99.90;;;;;;4952973;28;20243;-72
2023/03/27 10:22:03;;;;;;;1.97;0.40;;;9.00;99.90;;;;;;4953749;28;20211;-71
2023/03/27 10:24:33;;;;;;;1.90;0.60;;;9.20;99.90;;;;;;4954389;28;20207;-71
2023/03/27 10:27:00;;;;;;;0.93;0.40;;;9.00;99.90;;;;;;4956587;28;20267;-73
2023/03/27 10:29:31;;;;;;;2.37;0.20;;;8.60;99.90;;;;;;4957886;28;20311;-71
2023/03/27 10:31:59;;;;;;;0.73;0.23;;;8.20;99.90;;;;;;4957849;28;20236;-71
2023/03/27 10:34:32;;;;;;;3.63;0.40;;;7.70;99.90;;;;;;4957741;28;20214;-68
2023/03/27 10:37:02;;;;;;;1.37;0.23;;;7.40;99.90;;;;;;4958021;28;20219;-71
2023/03/27 10:39:33;;;;;;;0.30;0.10;;;7.40;99.90;;;;;;4956980;28;20761;-69
2023/03/27 10:42:06;;;;;;;3.03;0.60;;;7.50;99.90;;;;;;4957795;28;20208;-71
2023/03/27 10:44:36;;;;;;;2.90;0.33;;;7.70;99.90;;;;;;4957671;28;20208;-71
2023/03/27 10:47:03;;;;;;;4.60;0.40;;;7.90;99.90;;;;;;4957394;28;20607;-69
2023/03/27 10:49:40;;;;;;;0.87;0.27;;;8.10;99.90;;;;;;4957755;28;20232;-69
2023/03/27 10:52:18;;;;;;;4.03;0.40;;;8.30;99.90;;;;;;4957280;28;20239;-68
2023/03/27 10:54:49;;;;;;;1.30;0.10;;;8.40;99.90;;;;;;4957349;28;20689;-71
2023/03/27 10:57:21;;;;;;;2.67;0.30;;;8.50;99.90;;;;;;4957449;28;20579;-71
2023/03/27 10:59:54;;;;;;;0.70;0.30;;;8.40;99.90;;;;;;4957442;28;20236;-71
2023/03/27 11:02:29;;;;;;;8.37;3.00;;;8.50;99.90;;;;;;4957369;28;20223;-71
2023/03/27 11:05:01;;;;;;;1.70;0.73;;;8.60;99.90;;;;;;4957527;28;20204;-71
2023/03/27 11:07:32;;;;;;;2.90;0.40;;;8.70;99.90;;;;;;4956888;28;20303;-71
2023/03/27 11:10:03;;;;;;;3.60;0.60;;;8.90;99.90;;;;;;4957244;28;20208;-71
2023/03/27 11:12:35;;;;;;;2.73;0.43;;;8.90;99.90;;;;;;4957208;28;20236;-71
2023/03/27 11:15:09;;;;;;;3.03;0.50;;;9.00;99.90;;;;;;4957030;28;20675;-71
2023/03/27 11:17:41;;;;;;;0.80;0.40;;;9.20;99.90;;;;;;4957014;28;20558;-70
2023/03/27 11:20:20;;;;;;;3.23;0.30;;;9.40;99.90;;;;;;4956794;28;20219;-71
2023/03/27 11:22:54;;;;;;;2.60;0.73;;;9.50;99.90;;;;;;4956629;28;20243;-69
2023/03/27 11:25:30;;;;;;;0.77;0.30;;;9.70;99.90;;;;;;4957290;28;20254;-69
2023/03/27 11:28:03;;;;;;;2.17;0.30;;;9.70;99.90;;;;;;4956672;28;20238;-69
2023/03/27 11:30:38;;;;;;;2.53;0.40;;;9.80;99.90;;;;;;4956918;28;20215;-69
2023/03/27 11:33:15;;;;;;;2.93;0.50;;;10.00;99.90;;;;;;4957199;28;20203;-69
2023/03/27 11:35:48;;;;;;;3.80;0.40;;;10.10;99.90;;;;;;4957062;28;20219;-70
2023/03/27 11:38:21;;;;;;;5.10;0.57;;;10.10;99.90;;;;;;4956467;28;20314;-69
2023/03/27 11:40:50;;;;;;;2.73;0.50;;;10.00;99.90;;;;;;4957229;28;20204;-69
2023/03/27 11:43:19;;;;;;;1.60;0.50;;;9.60;99.90;;;;;;4956630;28;20212;-69
2023/03/27 11:45:52;;;;;;;4.80;0.60;;;9.30;99.90;;;;;;4956986;28;20220;-69
2023/03/27 11:48:41;;;;;;;3.43;0.40;;;9.20;99.90;;;;;;4956795;28;20232;-69
2023/03/27 11:51:14;;;;;;;2.60;0.60;;;8.90;99.90;;;;;;4956945;28;20239;-69
2023/03/27 11:53:55;;;;;;;1.43;0.47;;;9.00;99.90;;;;;;4956343;28;20680;-70
2023/03/27 11:56:36;;;;;;;1.60;0.40;;;9.20;99.90;;;;;;4956235;28;20666;-70
2023/03/27 11:59:16;;;;;;;0.97;0.30;;;9.60;99.90;;;;;;4956321;28;20231;-69
2023/03/27 12:01:52;;;;;;;4.10;0.73;;;9.50;99.90;;;;;;4956248;28;20670;-69
2023/03/27 12:04:40;;;;;;;1.70;0.37;;;9.80;99.90;;;;;;4956462;28;20204;-71
2023/03/27 12:07:18;;;;;;;5.63;0.37;;;9.50;99.90;;;;;;4956354;28;20213;-69
2023/03/27 12:10:00;;;;;;;3.03;0.47;;;9.20;99.90;;;;;;4956408;28;20228;-72
2023/03/27 12:12:44;;;;;;;0.70;0.23;;;8.90;99.90;;;;;;4955841;28;20322;-72
2023/03/27 12:15:39;;;;;;;0.63;0.23;;;8.90;99.90;;;;;;4956007;28;20219;-69
2023/03/27 12:18:16;;;;;;;0.40;0.10;;;9.00;99.90;;;;;;4956007;28;20311;-69
2023/03/27 12:20:57;;;;;;;1.03;0.23;;;9.10;99.90;;;;;;4956091;28;20208;-69
2023/03/27 12:23:55;;;;;;;2.27;0.43;;;9.30;99.90;;;;;;4955972;28;20566;-70
2023/03/27 12:26:46;;;;;;;1.03;0.30;;;9.30;99.90;;;;;;4956281;28;20211;-72
2023/03/27 12:29:26;;;;;;;0.67;0.20;;;9.20;99.90;;;;;;4956060;28;20230;-71
2023/03/27 12:32:19;;;;;;;1.50;0.57;;;8.90;99.90;;;;;;4956026;28;20239;-71
2023/03/27 12:34:52;;;;;;;2.13;0.60;;;8.90;99.90;;;;;;4955712;28;20212;-71
2023/03/27 12:37:23;;;;;;;0.97;0.40;;;8.80;99.90;;;;;;4956185;28;20219;-72
2023/03/27 12:39:52;;;;;;;0.93;0.27;;;9.00;99.90;;;;;;4955675;28;20598;-71
2023/03/27 12:42:43;;;;;;;1.17;0.30;;;9.10;99.90;;;;;;4955811;28;20200;-71
2023/03/27 12:45:16;;;;;;;1.33;0.50;;;9.20;99.90;;;;;;4955963;28;20215;-70
2023/03/27 12:47:45;;;;;;;2.27;0.20;;;9.20;99.90;;;;;;4955708;28;20207;-71
2023/03/27 12:50:19;;;;;;;1.93;0.40;;;9.10;99.90;;;;;;4955189;28;20208;-71
2023/03/27 12:52:46;;;;;;;3.40;0.40;;;9.00;99.90;;;;;;4955698;28;20254;-71
2023/03/27 12:55:35;;;;;;;2.77;0.57;;;9.10;99.90;;;;;;4955445;28;20215;-71
2023/03/27 12:58:05;;;;;;;2.63;0.40;;;9.40;99.90;;;;;;4955440;28;20228;-72
2023/03/27 13:00:33;;;;;;;0.77;0.20;;;9.70;99.90;;;;;;4955312;28;20216;-69
2023/03/27 13:03:27;;;;;;;3.80;0.40;;;9.80;99.90;;;;;;4951875;28;20667;-69
2023/03/27 13:06:16;;;;;;;0.70;0.30;;;10.00;99.90;;;;;;4950604;29;20674;-71
2023/03/27 13:09:18;;;;;;;4.03;0.30;;;10.20;99.90;;;;;;4954699;28;20223;-71
2023/03/27 13:12:01;;;;;;;2.07;0.40;;;10.30;99.90;;;;;;4953632;28;20592;-71
2023/03/27 13:14:53;;;;;;;1.57;0.40;;;10.30;99.90;;;;;;4953623;28;20207;-71
2023/03/27 13:17:35;;;;;;;3.13;0.37;;;10.30;99.90;;;;;;4955193;28;20296;-71
2023/03/27 13:20:15;;;;;;;2.63;0.53;;;10.30;99.90;;;;;;4955026;28;20208;-71
2023/03/27 13:22:57;;;;;;;2.37;0.50;;;10.40;99.90;;;;;;4954323;28;20670;-71
2023/03/27 13:25:48;;;;;;;1.97;0.40;;;10.50;99.90;;;;;;4953615;28;20204;-71
2023/03/27 13:28:34;;;;;;;1.77;0.40;;;10.10;99.90;;;;;;4953937;28;20242;-70
2023/03/27 13:31:06;;;;;;;2.83;0.30;;;9.70;99.90;;;;;;4954870;28;20651;-71
2023/03/27 13:33:42;;;;;;;3.63;0.50;;;9.30;99.90;;;;;;4953658;29;20240;-70
2023/03/27 13:36:13;;;;;;;2.97;0.47;;;9.10;99.90;;;;;;4935862;29;20209;-71
2023/03/27 13:39:13;;;;;;;2.50;0.40;;;8.90;99.90;;;;;;4935522;29;20276;-71
2023/03/27 13:41:52;;;;;;;1.40;0.47;;;8.90;99.90;;;;;;4933133;29;20248;-71
2023/03/27 13:44:26;;;;;;;2.67;0.30;;;9.00;99.90;;;;;;4940805;29;20200;-71
2023/03/27 13:47:01;;;;;;;0.50;0.30;;;9.00;99.90;;;;;;4953759;28;20215;-70
2023/03/27 13:49:42;;;;;;;1.00;0.60;;;8.90;99.90;;;;;;4954687;28;20231;-70
2023/03/27 13:52:31;;;;;;;4.47;0.50;;;8.90;99.90;;;;;;4954351;28;20231;-70
2023/03/27 13:55:18;;;;;;;1.53;0.33;;;8.90;99.90;;;;;;4954518;28;20208;-73
2023/03/27 13:57:58;;;;;;;1.73;0.57;;;8.80;99.90;;;;;;4935071;29;20236;-70
2023/03/27 14:00:51;;;;;;;1.63;0.40;;;9.00;99.90;;;;;;4946932;28;20214;-73
2023/03/27 14:04:04;;;;;;;53.70;18.83;;;9.10;99.90;;;;;;4957517;28;20208;-69
2023/03/27 14:07:13;;;;;;;6.50;1.47;;;9.30;99.90;;;;;;4957309;28;20248;-72
2023/03/27 14:09:57;;;;;;;3.80;0.50;;;9.40;99.90;;;;;;4938915;29;20584;-71
2023/03/27 14:12:37;;;;;;;1.23;0.30;;;9.60;99.90;;;;;;4950899;29;20236;-72
2023/03/27 14:15:32;;;;;;;3.90;0.30;;;9.90;99.90;;;;;;4958438;28;20216;-71
2023/03/27 14:18:28;;;;;;;3.60;0.50;;;9.30;99.90;;;;;;4958157;28;20228;-71
2023/03/27 14:20:59;;;;;;;1.53;0.50;;;8.50;99.90;;;;;;4957068;28;20208;-71
2023/03/27 14:23:28;;;;;;;0.87;0.30;;;8.00;99.90;;;;;;4957302;28;20212;-72
2023/03/27 14:26:00;;;;;;;1.00;0.50;;;7.90;99.90;;;;;;4938322;29;20669;-72
2023/03/27 14:28:30;;;;;;;2.37;0.70;;;7.90;99.90;;;;;;4938748;29;20763;-71
2023/03/27 14:30:59;;;;;;;1.50;0.40;;;8.00;99.90;;;;;;4957403;29;20247;-72
2023/03/27 14:33:27;;;;;;;16.37;4.20;;;8.30;99.90;;;;;;4957870;28;20722;-71
2023/03/27 14:36:00;;;;;;;3.60;0.90;;;8.50;99.90;;;;;;4957471;29;20219;-72
2023/03/27 14:38:30;;;;;;;2.00;0.60;;;8.60;99.90;;;;;;4957379;28;20725;-72
2023/03/27 14:40:58;;;;;;;4.10;2.70;;;8.70;99.90;;;;;;4955555;29;20204;-72
2023/03/27 14:43:28;;;;;;;1.77;1.20;;;8.80;99.90;;;;;;4957394;28;20208;-72
2023/03/27 14:45:58;;;;;;;2.30;0.50;;;8.70;99.90;;;;;;4956799;29;20207;-72
2023/03/27 14:48:29;;;;;;;2.77;0.50;;;8.70;99.90;;;;;;4957603;28;20682;-71
2023/03/27 14:51:00;;;;;;;1.40;0.53;;;8.40;99.90;;;;;;4956559;28;20754;-71
2023/03/27 14:53:35;;;;;;;2.97;0.50;;;8.30;99.90;;;;;;4957766;28;20771;-71
2023/03/27 14:56:09;;;;;;;2.77;0.50;;;8.10;99.90;;;;;;4957048;28;20267;-71
2023/03/27 14:58:37;;;;;;;1.47;0.40;;;8.20;99.90;;;;;;4956549;28;20227;-72
2023/03/27 15:01:07;;;;;;;2.37;0.60;;;8.40;99.90;;;;;;4956026;28;20212;-71
2023/03/27 15:03:37;;;;;;;3.20;1.00;;;8.60;99.90;;;;;;4956350;29;20246;-70
2023/03/27 15:06:13;;;;;;;1.63;0.40;;;8.80;99.90;;;;;;4955187;28;20246;-71
2023/03/27 15:08:45;;;;;;;6.00;0.70;;;8.90;99.90;;;;;;4956183;29;20223;-70
2023/03/27 15:11:16;;;;;;;5.37;0.60;;;8.70;99.90;;;;;;4956207;29;20204;-71
2023/03/27 15:13:45;;;;;;;1.80;0.30;;;8.60;99.90;;;;;;4955681;28;20703;-71
2023/03/27 15:16:19;;;;;;;1.13;0.20;;;8.50;99.90;;;;;;4955983;28;20295;-73
2023/03/27 15:18:55;;;;;;;1.53;0.47;;;8.50;99.90;;;;;;4957125;29;20239;-72
2023/03/27 15:21:34;;;;;;;1.30;0.40;;;8.50;99.90;;;;;;4955815;28;20290;-71
2023/03/27 15:24:05;;;;;;;1.47;0.40;;;8.60;99.90;;;;;;4955957;28;20218;-71
2023/03/27 15:26:34;;;;;;;2.83;0.40;;;8.60;99.90;;;;;;4956165;28;20212;-70
2023/03/27 15:29:06;;;;;;;0.63;0.30;;;8.50;99.90;;;;;;4957107;28;20232;-71
2023/03/27 15:31:35;;;;;;;5.93;0.97;;;8.60;99.90;;;;;;4954954;28;20212;-70
2023/03/27 15:34:05;;;;;;;1.90;0.40;;;8.60;99.90;;;;;;4956818;28;20714;-70
2023/03/27 15:36:36;;;;;;;5.00;0.40;;;8.70;99.90;;;;;;4955348;29;20212;-70
2023/03/27 15:39:05;;;;;;;2.03;0.80;;;8.80;99.90;;;;;;4956981;28;20228;-70
2023/03/27 15:41:41;;;;;;;4.90;0.40;;;8.80;99.90;;;;;;4956903;28;20244;-70
2023/03/27 15:44:11;;;;;;;1.73;0.53;;;9.00;99.90;;;;;;4956806;28;20239;-70
2023/03/27 15:46:47;;;;;;;1.90;0.50;;;9.20;99.90;;;;;;4956171;29;20611;-70
2023/03/27 15:49:23;;;;;;;1.23;0.37;;;9.40;99.90;;;;;;4957101;28;20231;-71
2023/03/27 15:51:51;;;;;;;2.47;0.40;;;9.50;99.90;;;;;;4956618;28;20226;-71
2023/03/27 15:54:31;;;;;;;3.10;0.40;;;9.60;99.90;;;;;;4958574;28;20211;-70
2023/03/27 15:56:59;;;;;;;0.87;0.33;;;9.40;99.90;;;;;;4956517;28;20290;-69
2023/03/27 15:59:26;;;;;;;1.30;0.67;;;9.40;99.90;;;;;;4955962;28;20228;-69
2023/03/27 16:01:55;;;;;;;0.93;0.20;;;9.20;99.90;;;;;;4956040;28;20247;-72
2023/03/27 16:04:26;;;;;;;0.60;0.30;;;9.00;99.90;;;;;;4956227;28;20208;-69
2023/03/27 16:07:05;;;;;;;0.20;0.10;;;8.70;99.90;;;;;;4955909;28;20638;-72
2023/03/27 16:09:37;;;;;;;6.77;0.40;;;8.40;99.90;;;;;;4955921;28;20714;-72
2023/03/27 16:12:04;;;;;;;3.43;0.50;;;8.30;99.90;;;;;;4955799;28;20212;-71
2023/03/27 16:14:34;;;;;;;4.00;0.77;;;8.10;99.90;;;;;;4956230;28;20218;-72
2023/03/27 16:17:17;;;;;;;1.33;0.40;;;8.10;99.90;;;;;;4956279;28;20208;-72
2023/03/27 16:19:49;;;;;;;0.70;0.20;;;7.90;99.90;;;;;;4955372;28;20228;-72
2023/03/27 16:22:22;;;;;;;1.70;0.40;;;7.90;99.90;;;;;;4955545;29;20208;-70
2023/03/27 16:24:49;;;;;;;2.37;0.40;;;7.90;99.90;;;;;;4955303;28;20204;-72
2023/03/27 16:27:17;;;;;;;3.83;0.43;;;7.90;99.90;;;;;;4955848;28;20782;-71
2023/03/27 16:29:47;;;;;;;0.73;0.20;;;7.90;99.90;;;;;;4955564;28;20247;-71
2023/03/27 16:32:14;;;;;;;1.00;0.30;;;7.90;99.90;;;;;;4955425;28;20215;-71
2023/03/27 16:34:40;;;;;;;1.17;0.27;;;7.90;99.90;;;;;;4955385;28;20212;-71
2023/03/27 16:37:07;;;;;;;1.90;0.27;;;7.90;99.90;;;;;;4955260;28;20208;-71
2023/03/27 16:39:36;;;;;;;2.73;0.80;;;8.00;99.90;;;;;;4954853;28;20232;-71
2023/03/27 16:42:03;;;;;;;3.57;0.40;;;7.90;99.90;;;;;;4955610;28;20223;-71
2023/03/27 16:44:30;;;;;;;0.60;0.20;;;7.90;99.90;;;;;;4955338;28;20212;-71
2023/03/27 16:46:57;;;;;;;4.77;0.30;;;7.80;99.90;;;;;;4955340;28;20211;-71
2023/03/27 16:49:23;;;;;;;4.70;0.43;;;7.80;99.90;;;;;;4954940;28;20325;-71
2023/03/27 16:51:50;;;;;;;3.00;0.40;;;7.70;99.90;;;;;;4955127;28;20226;-71
2023/03/27 16:54:17;;;;;;;0.43;0.27;;;7.60;99.90;;;;;;4955355;28;20242;-71
2023/03/27 16:56:45;;;;;;;4.80;0.47;;;7.70;99.90;;;;;;4955205;28;20208;-71
2023/03/27 16:59:12;;;;;;;1.70;0.30;;;7.60;99.90;;;;;;4954678;28;20236;-71
2023/03/27 17:01:39;;;;;;;4.60;1.17;;;7.40;99.90;;;;;;4954822;28;20212;-71
2023/03/27 17:04:06;;;;;;;13.27;6.53;;;7.40;99.90;;;;;;4954485;28;20670;-71
2023/03/27 17:06:33;;;;;;;2.10;0.70;;;7.20;99.90;;;;;;4951777;28;20223;-71
2023/03/27 17:09:00;;;;;;;2.53;1.70;;;7.20;99.90;;;;;;4953542;28;20232;-71
2023/03/27 17:11:26;;;;;;;3.07;1.00;;;7.30;99.90;;;;;;4954890;28;20223;-71
2023/03/27 17:13:55;;;;;;;4.73;0.60;;;7.30;99.90;;;;;;4954463;28;20288;-71
2023/03/27 17:16:22;;;;;;;2.83;0.87;;;7.30;99.90;;;;;;4954305;28;20220;-74
2023/03/27 17:18:48;;;;;;;1.33;0.40;;;7.40;99.90;;;;;;4948370;28;20230;-70
2023/03/27 17:21:15;;;;;;;4.30;1.00;;;7.50;99.90;;;;;;4952856;28;20263;-71
2023/03/27 17:23:42;;;;;;;4.97;0.60;;;7.60;99.90;;;;;;4952718;28;20658;-71
2023/03/27 17:26:11;;;;;;;1.90;0.50;;;7.50;99.90;;;;;;4952805;28;20226;-71
2023/03/27 17:28:40;;;;;;;1.73;0.50;;;7.40;99.90;;;;;;4953260;28;20238;-73
2023/03/27 17:31:08;;;;;;;2.50;0.87;;;7.30;99.90;;;;;;4948512;28;21034;-72
2023/03/27 17:33:35;;;;;;;2.70;1.40;;;7.20;99.90;;;;;;4952775;28;20235;-71
2023/03/27 17:36:07;;;;;;;1.20;0.50;;;7.10;99.90;;;;;;4953254;28;20204;-73
2023/03/27 17:38:34;;;;;;;5.73;0.70;;;7.10;99.90;;;;;;4952887;28;20238;-70
2023/03/27 17:41:02;;;;;;;1.87;0.70;;;7.00;99.90;;;;;;4953583;28;20282;-71
2023/03/27 17:43:29;;;;;;;6.00;0.70;;;7.10;99.90;;;;;;4954163;28;20204;-71
2023/03/27 17:45:56;;;;;;;6.50;1.00;;;7.00;99.90;;;;;;4954461;28;20207;-71
2023/03/27 17:48:24;;;;;;;1.83;0.40;;;6.90;99.90;;;;;;4954511;28;20251;-72
2023/03/27 17:50:51;;;;;;;1.13;0.60;;;6.80;99.90;;;;;;4954051;28;20222;-73
2023/03/27 17:53:18;;;;;;;3.67;1.00;;;6.80;99.90;;;;;;4953857;28;20718;-71
2023/03/27 17:55:44;;;;;;;3.00;1.03;;;6.80;99.90;;;;;;4954198;28;20667;-72
2023/03/27 17:58:12;;;;;;;1.23;0.40;;;6.80;99.90;;;;;;4954237;28;20224;-72
2023/03/27 18:00:41;;;;;;;2.60;0.60;;;6.80;99.90;;;;;;4953943;28;20215;-71
2023/03/27 18:03:08;;;;;;;2.63;0.60;;;6.80;99.90;;;;;;4954498;28;20292;-71
2023/03/27 18:05:37;;;;;;;2.13;0.60;;;6.70;99.90;;;;;;4954411;28;20222;-71
2023/03/27 18:08:04;;;;;;;5.70;0.87;;;6.60;99.90;;;;;;4954231;28;20228;-72
2023/03/27 18:10:32;;;;;;;2.43;0.73;;;6.50;99.90;;;;;;4954100;28;20232;-70
2023/03/27 18:12:59;;;;;;;0.67;0.43;;;6.50;99.90;;;;;;4949637;28;20238;-72
2023/03/27 18:15:25;;;;;;;4.37;0.47;;;6.50;99.90;;;;;;4952964;29;20200;-70
2023/03/27 18:17:52;;;;;;;3.10;1.10;;;6.40;99.90;;;;;;4952449;28;20774;-70
2023/03/27 18:20:19;;;;;;;9.27;1.90;;;6.40;99.90;;;;;;4949895;28;20208;-71
2023/03/27 18:22:47;;;;;;;2.60;0.80;;;6.20;99.90;;;;;;4950383;29;20663;-71
2023/03/27 18:25:14;;;;;;;2.83;0.90;;;6.20;99.90;;;;;;4951372;28;20236;-71
2023/03/27 18:27:42;;;;;;;2.20;1.03;;;6.20;99.90;;;;;;4939570;28;20212;-71
2023/03/27 18:30:12;;;;;;;2.40;0.93;;;6.20;99.90;;;;;;4941228;28;20235;-70
2023/03/27 18:32:40;;;;;;;1.03;0.60;;;6.20;99.90;;;;;;4940685;28;20208;-71
2023/03/27 18:35:08;;;;;;;3.97;0.80;;;6.20;99.90;;;;;;4945413;28;20329;-71
2023/03/27 18:37:35;;;;;;;2.83;0.60;;;6.20;99.90;;;;;;4944723;28;20290;-71
2023/03/27 18:40:07;;;;;;;4.57;0.80;;;6.20;99.90;;;;;;4937046;28;20683;-72
2023/03/27 18:42:34;;;;;;;3.50;1.00;;;6.20;99.90;;;;;;4947691;28;20291;-70
2023/03/27 18:45:01;;;;;;;3.63;0.77;;;6.20;99.90;;;;;;4948857;28;20299;-71
2023/03/27 18:47:28;;;;;;;2.83;1.27;;;6.20;99.90;;;;;;4953322;28;20212;-71
2023/03/27 18:49:56;;;;;;;2.97;0.90;;;6.00;99.90;;;;;;4947638;28;20216;-71
2023/03/27 18:52:23;;;;;;;3.83;1.30;;;5.90;99.90;;;;;;4955367;28;20611;-71
2023/03/27 18:54:50;;;;;;;4.83;1.07;;;5.80;99.90;;;;;;4949293;29;20320;-71
2023/03/27 18:57:18;;;;;;;1.00;0.50;;;5.90;99.90;;;;;;4956834;29;20210;-70
2023/03/27 18:59:45;;;;;;;1.53;0.83;;;6.00;99.90;;;;;;4946461;28;20295;-70
2023/03/27 19:02:13;;;;;;;5.93;1.20;;;6.00;99.90;;;;;;4946077;29;20278;-70
2023/03/27 19:04:40;;;;;;;7.53;1.00;;;6.10;99.90;;;;;;4945999;28;20328;-71
2023/03/27 19:07:06;;;;;;;5.63;0.80;;;6.00;99.90;;;;;;4955317;28;20205;-71
2023/03/27 19:09:33;;;;;;;2.87;1.00;;;6.10;99.90;;;;;;4942902;28;20571;-71
2023/03/27 19:12:00;;;;;;;4.13;1.20;;;6.10;99.90;;;;;;4952516;28;20543;-71
2023/03/27 19:14:28;;;;;;;5.80;2.17;;;5.90;99.90;;;;;;4949869;29;20232;-71
2023/03/27 19:16:55;;;;;;;5.30;1.33;;;5.80;99.90;;;;;;4950559;28;20216;-71
2023/03/27 19:19:22;;;;;;;4.80;0.87;;;5.70;99.90;;;;;;4949671;28;20228;-71
2023/03/27 19:21:50;;;;;;;4.03;1.20;;;5.60;99.90;;;;;;4949597;28;20208;-71
2023/03/27 19:24:17;;;;;;;1.73;0.80;;;5.70;99.90;;;;;;4956103;28;20200;-71
2023/03/27 19:26:44;;;;;;;2.23;0.93;;;5.70;99.90;;;;;;4951244;28;20219;-70
2023/03/27 19:29:11;;;;;;;3.93;1.13;;;5.60;99.90;;;;;;4945681;28;20234;-70
2023/03/27 19:31:39;;;;;;;3.67;0.80;;;5.50;99.90;;;;;;4949190;28;20377;-71
2023/03/27 19:34:06;;;;;;;1.60;0.90;;;5.50;99.90;;;;;;4954344;28;20240;-71
2023/03/27 19:36:33;;;;;;;2.30;0.97;;;5.50;99.90;;;;;;4954923;28;20208;-71
2023/03/27 19:39:00;;;;;;;1.97;0.90;;;5.40;99.90;;;;;;4955924;28;20242;-71
2023/03/27 19:41:27;;;;;;;4.27;1.03;;;5.50;99.90;;;;;;4943617;28;20560;-70
2023/03/27 19:43:54;;;;;;;5.53;1.20;;;5.40;99.90;;;;;;4955259;28;20234;-71
2023/03/27 19:46:21;;;;;;;2.27;1.07;;;5.40;99.90;;;;;;4942152;28;20213;-71
2023/03/27 19:48:50;;;;;;;5.20;1.77;;;5.30;99.90;;;;;;4953657;28;20224;-70
2023/03/27 19:51:17;;;;;;;3.13;1.80;;;5.10;99.90;;;;;;4951669;28;20688;-71
2023/03/27 19:53:44;;;;;;;6.93;1.70;;;5.10;99.90;;;;;;4953965;28;20664;-72
2023/03/27 19:56:10;;;;;;;3.80;1.83;;;5.10;99.90;;;;;;4945251;28;20672;-71
2023/03/27 19:58:37;;;;;;;6.33;1.67;;;5.10;99.90;;;;;;4952496;28;20231;-71
2023/03/27 20:01:05;;;;;;;9.63;1.70;;;5.10;99.90;;;;;;4944787;28;20304;-71
2023/03/27 20:03:33;;;;;;;8.00;1.70;;;5.00;99.90;;;;;;4952490;28;20204;-71
2023/03/27 20:06:02;;;;;;;7.77;2.57;;;5.00;99.90;;;;;;4941401;28;20683;-71
2023/03/27 20:08:32;;;;;;;9.17;2.23;;;5.00;99.90;;;;;;4948045;28;20580;-71
2023/03/27 20:10:59;;;;;;;6.53;1.90;;;5.00;99.90;;;;;;4940253;28;20209;-71
2023/03/27 20:13:26;;;;;;;7.87;1.73;;;4.90;99.90;;;;;;4950151;28;20217;-71
2023/03/27 20:15:53;;;;;;;4.80;1.10;;;4.90;99.90;;;;;;4951785;28;20687;-71
2023/03/27 20:18:21;;;;;;;2.33;0.93;;;4.80;99.90;;;;;;4947693;28;20256;-71
2023/03/27 20:20:48;;;;;;;2.77;1.60;;;4.80;99.90;;;;;;4952262;29;20205;-72
2023/03/27 20:23:17;;;;;;;3.80;0.90;;;4.70;99.90;;;;;;4952037;28;20263;-71
2023/03/27 20:25:44;;;;;;;2.53;1.20;;;4.50;99.90;;;;;;4953505;28;20214;-71
2023/03/27 20:28:11;;;;;;;9.10;1.30;;;4.50;99.90;;;;;;4940409;28;20235;-71
2023/03/27 20:30:39;;;;;;;4.90;1.27;;;4.40;99.90;;;;;;4952856;29;20211;-71
2023/03/27 20:33:07;;;;;;;2.87;1.07;;;4.40;99.90;;;;;;4943958;28;20656;-71
2023/03/27 20:35:35;;;;;;;3.27;1.20;;;4.20;99.90;;;;;;4951792;29;20231;-71
2023/03/27 20:38:04;;;;;;;3.37;1.27;;;4.10;99.90;;;;;;4950538;28;20231;-71
2023/03/27 20:40:41;;;;;;;2.50;1.47;;;4.10;99.90;;;;;;4952825;28;20219;-71
2023/03/27 20:43:09;;;;;;;5.70;1.13;;;4.00;99.90;;;;;;4953478;29;20294;-71
2023/03/27 20:45:41;;;;;;;2.47;1.07;;;4.00;99.90;;;;;;4949697;28;20580;-71
2023/03/27 20:48:13;;;;;;;3.93;1.40;;;3.90;99.90;;;;;;4939148;29;20324;-70
2023/03/27 20:50:47;;;;;;;3.60;1.23;;;3.80;99.90;;;;;;4946290;28;20217;-71
2023/03/27 20:53:15;;;;;;;3.77;1.13;;;3.80;99.90;;;;;;4939337;28;20211;-71
2023/03/27 20:55:44;;;;;;;5.30;1.10;;;3.80;99.90;;;;;;4949717;28;20228;-71
2023/03/27 20:58:11;;;;;;;2.33;0.90;;;3.70;99.90;;;;;;4954289;28;20732;-71
2023/03/27 21:00:37;;;;;;;2.20;1.50;;;3.70;99.90;;;;;;4948972;28;20200;-71
2023/03/27 21:03:04;;;;;;;2.83;0.90;;;3.70;99.90;;;;;;4954820;28;20651;-72
2023/03/27 21:05:31;;;;;;;3.37;0.80;;;3.60;99.90;;;;;;4945727;28;20735;-71
2023/03/27 21:07:58;;;;;;;4.23;1.50;;;3.50;99.90;;;;;;4944919;28;20227;-72
2023/03/27 21:10:25;;;;;;;3.70;0.90;;;3.50;99.90;;;;;;4938480;28;20205;-71
2023/03/27 21:12:55;;;;;;;2.53;1.00;;;3.50;99.90;;;;;;4950913;28;20667;-71
2023/03/27 21:15:22;;;;;;;3.07;1.00;;;3.40;99.90;;;;;;4945488;28;20228;-71
2023/03/27 21:17:49;;;;;;;4.10;1.23;;;3.40;99.90;;;;;;4950715;28;20224;-71
2023/03/27 21:20:16;;;;;;;1.83;1.00;;;3.40;99.90;;;;;;4943272;28;20627;-72
2023/03/27 21:22:44;;;;;;;2.03;1.03;;;3.40;99.90;;;;;;4950495;28;20214;-71
2023/03/27 21:25:11;;;;;;;3.40;1.23;;;3.30;99.90;;;;;;4942127;29;20670;-70
2023/03/27 21:27:38;;;;;;;4.50;1.27;;;3.20;99.90;;;;;;4949005;28;20201;-71
2023/03/27 21:30:08;;;;;;;4.00;1.13;;;3.20;99.90;;;;;;4949519;28;20208;-70
2023/03/27 21:32:35;;;;;;;3.67;1.20;;;3.20;99.90;;;;;;4948140;28;20209;-71
2023/03/27 21:35:02;;;;;;;4.50;1.50;;;3.10;99.90;;;;;;4947530;29;20232;-71
2023/03/27 21:37:28;;;;;;;2.23;1.73;;;3.00;99.90;;;;;;4954543;28;20208;-71
2023/03/27 21:39:55;;;;;;;5.50;1.63;;;3.00;99.90;;;;;;4954952;28;20207;-71
2023/03/27 21:42:22;;;;;;;3.93;1.53;;;3.00;99.90;;;;;;4954500;28;20217;-71
2023/03/27 21:44:49;;;;;;;9.07;1.90;;;3.00;99.90;;;;;;4954868;28;20218;-71
